Карточка аэропорта UNWW

Внимание!
Информация на этой странице в стадии наполнения.
Если вы не увидели какой-то информации, или заметили неточность - пожалуйста сообщите нам!
Спасибо!
Команда RU-STAFF
Название аэропортаСпиченково
Название аэропорта (англ.)Spichenkovo
Превышение1023 ft. (311.8 m.)
Координаты53°48.714', 86°52.704'
Высота перехода800m
Эшелон переходаFL050
Коды ответчика5270-5277
Зона ОрВДНовосибирск РПИ (UNNT)
Данные METARUNWW 290700Z 25005MPS 9999 BKN022CB 03/M05 Q1013 R19/290250 NOSIG RMK QFE732
Проноз погоды (TAF)UNWW 290500Z 2906/3006 26003G08MPS 8000 BKN016CB TEMPO 2906/2912 27008G15MPS -SHSNRA BKN007 BKN011CB BECMG 2914/2915 22005G13MPS BKN020CB TEMPO 2918/3003 18007G15MPS 1500 SHSN BKN011CB
NOTAMshow/hide NOTAM
AWOS   TABLE

Информация о ВПП

ВПП Длина ВПП (м.) Покрытие Курс ВПП Частота ILS
192679Цементобетон194111.1
012679Цементобетон14 

Диспетчерские позиции

Позывной Наименование органа УВД Частота
UNWW_TWRНовокузнецк-Старт121.2
UNWW_APPНовокузнецк-Подход118.6



Спутниковое изображение